createdAt,value
2019-04-27T00:01:35.610Z,3.85
2019-04-27T00:04:23.586Z,4.20
2019-04-27T00:06:57.691Z,3.95
2019-04-27T00:09:50.076Z,4.25
2019-04-27T00:12:21.657Z,4.40
2019-04-27T00:14:48.393Z,4.40
2019-04-27T00:17:45.473Z,4.45
2019-04-27T00:20:13.106Z,4.97
2019-04-27T00:22:43.624Z,4.33
2019-04-27T00:25:13.091Z,4.30
2019-04-27T00:27:43.536Z,4.77
2019-04-27T00:30:13.847Z,4.67
2019-04-27T00:32:43.332Z,4.62
2019-04-27T00:35:14.198Z,5.15
2019-04-27T00:37:47.074Z,4.80
2019-04-27T00:40:17.298Z,5.00
2019-04-27T00:42:45.788Z,5.12
2019-04-27T00:45:14.926Z,5.37
2019-04-27T00:47:54.661Z,5.78
2019-04-27T00:50:13.815Z,5.72
2019-04-27T00:52:42.985Z,6.30
2019-04-27T00:55:13.244Z,5.70
2019-04-27T00:57:46.139Z,5.45
2019-04-27T01:00:33.737Z,6.03
2019-04-27T01:03:04.129Z,6.03
2019-04-27T01:05:33.843Z,5.35
2019-04-27T01:08:03.823Z,5.45
2019-04-27T01:10:33.475Z,5.33
2019-04-27T01:13:03.286Z,4.87
2019-04-27T01:15:33.963Z,5.40
2019-04-27T01:18:11.923Z,5.70
2019-04-27T01:20:33.170Z,5.70
2019-04-27T01:23:01.669Z,6.00
2019-04-27T01:25:31.828Z,6.37
2019-04-27T01:28:04.707Z,6.00
2019-04-27T01:30:40.360Z,6.22
2019-04-27T01:33:09.812Z,6.30
2019-04-27T01:35:39.172Z,6.10
2019-04-27T01:38:09.040Z,6.62
2019-04-27T01:40:38.591Z,7.37
2019-04-27T01:43:08.992Z,7.00
2019-04-27T01:45:39.158Z,7.90
2019-04-27T01:48:20.869Z,8.58
2019-04-27T01:50:39.215Z,8.48
2019-04-27T01:53:09.091Z,9.88
2019-04-27T01:55:38.616Z,10.78
2019-04-27T01:58:10.697Z,11.75
2019-04-27T02:00:59.489Z,11.83
2019-04-27T02:03:33.285Z,13.05
2019-04-27T02:08:28.635Z,13.68
2019-04-27T02:10:57.111Z,13.88
2019-04-27T02:13:25.635Z,13.62
2019-04-27T02:15:54.309Z,14.60
2019-04-27T02:18:34.667Z,13.88
2019-04-27T02:20:53.017Z,14.90
2019-04-27T02:23:21.605Z,15.88
2019-04-27T02:25:50.124Z,14.80
2019-04-27T02:28:39.428Z,15.18
2019-04-27T02:31:26.000Z,15.77
2019-04-27T02:33:56.322Z,15.38
2019-04-27T02:36:24.970Z,15.03
2019-04-27T02:38:53.452Z,16.67
2019-04-27T02:41:22.007Z,15.95
2019-04-27T02:44:01.987Z,16.60
2019-04-27T02:46:31.583Z,16.50
2019-04-27T02:49:06.065Z,16.67
2019-04-27T02:51:42.947Z,17.02
2019-04-27T02:54:12.692Z,16.67
2019-04-27T02:56:41.479Z,17.02
2019-04-27T02:59:11.932Z,17.73
2019-04-27T03:01:46.376Z,17.15
2019-04-27T03:04:12.631Z,16.73
2019-04-27T03:06:41.159Z,16.62
2019-04-27T03:09:10.536Z,17.84
2019-04-27T03:11:39.705Z,16.63
2019-04-27T03:14:28.421Z,17.62
2019-04-27T03:16:44.377Z,18.05
2019-04-27T03:19:30.407Z,19.42
2019-04-27T03:22:15.578Z,18.45
2019-04-27T03:25:01.141Z,16.77
2019-04-27T03:27:31.335Z,17.87
2019-04-27T03:30:00.305Z,17.00
2019-04-27T03:32:31.329Z,19.05
2019-04-27T03:35:02.628Z,20.10
2019-04-27T03:37:30.408Z,20.27
2019-04-27T03:40:00.144Z,22.50
2019-04-27T03:42:29.381Z,21.62
2019-04-27T03:45:00.391Z,22.50
2019-04-27T03:47:30.562Z,22.83
2019-04-27T03:50:00.099Z,23.15
2019-04-27T03:52:33.452Z,23.47
2019-04-27T03:55:15.799Z,23.57
2019-04-27T03:57:46.002Z,25.52
2019-04-27T04:00:20.123Z,24.60
2019-04-27T04:02:50.259Z,23.98
2019-04-27T04:05:19.829Z,22.07
2019-04-27T04:07:50.317Z,24.00
2019-04-27T04:10:19.910Z,23.70
2019-04-27T04:13:06.215Z,24.27
2019-04-27T04:15:39.958Z,25.85
2019-04-27T04:18:09.793Z,28.45
2019-04-27T04:20:40.510Z,26.05
2019-04-27T04:23:10.683Z,23.12
2019-04-27T04:25:40.954Z,23.33
2019-04-27T04:28:09.497Z,21.98
2019-04-27T04:30:40.285Z,21.02
2019-04-27T04:33:10.178Z,23.92
2019-04-27T04:35:39.811Z,23.75
2019-04-27T04:38:10.452Z,22.35
2019-04-27T04:40:40.505Z,22.27
2019-04-27T04:43:11.110Z,24.67
2019-04-27T04:45:59.648Z,27.17
2019-04-27T04:48:30.223Z,25.23
2019-04-27T04:50:59.947Z,33.85
2019-04-27T04:53:29.410Z,30.85
2019-04-27T04:56:00.053Z,29.18
2019-04-27T04:58:29.398Z,23.05
2019-04-27T05:00:59.561Z,19.05
2019-04-27T05:03:28.708Z,20.60
2019-04-27T05:05:58.778Z,19.42
2019-04-27T05:08:29.114Z,26.62
2019-04-27T05:10:59.523Z,29.15
2019-04-27T05:13:29.310Z,34.60
2019-04-27T05:15:58.852Z,26.37
2019-04-27T05:18:29.136Z,23.98
2019-04-27T05:20:59.372Z,24.85
2019-04-27T05:23:28.762Z,30.12
2019-04-27T05:25:59.184Z,32.63
2019-04-27T05:28:27.562Z,30.02
2019-04-27T05:30:56.076Z,30.53
2019-04-27T05:33:24.570Z,37.10
2019-04-27T05:35:53.096Z,38.20
2019-04-27T05:38:21.625Z,34.40
2019-04-27T05:40:50.180Z,30.90
2019-04-27T05:43:20.518Z,21.97
2019-04-27T05:46:21.087Z,39.93
2019-04-27T05:48:49.607Z,26.23
2019-04-27T05:51:19.743Z,23.47
2019-04-27T05:53:49.531Z,21.02
2019-04-27T05:56:19.319Z,24.52
2019-04-27T05:58:49.117Z,37.35
2019-04-27T06:01:19.642Z,46.37
2019-04-27T06:03:49.822Z,40.52
2019-04-27T06:06:19.731Z,40.98
2019-04-27T06:08:49.469Z,27.35
2019-04-27T06:11:19.649Z,31.07
2019-04-27T06:13:49.230Z,28.23
2019-04-27T06:16:19.476Z,27.10
2019-04-27T06:18:49.314Z,21.57
2019-04-27T06:21:19.573Z,30.67
2019-04-27T06:23:48.783Z,23.63
2019-04-27T06:26:17.427Z,24.15
2019-04-27T06:28:45.960Z,26.48
2019-04-27T06:31:14.518Z,22.02
2019-04-27T06:33:43.066Z,21.80
2019-04-27T06:36:11.588Z,19.77
2019-04-27T06:38:40.158Z,19.30
2019-04-27T06:41:09.999Z,29.15
2019-04-27T06:43:40.450Z,32.90
2019-04-27T06:46:09.169Z,19.25
2019-04-27T06:48:39.356Z,33.20
2019-04-27T06:51:09.697Z,25.47
2019-04-27T06:53:39.459Z,121.80
2019-04-27T06:56:08.965Z,25.37
2019-04-27T06:58:40.500Z,63.95
2019-04-27T07:01:09.463Z,33.10
2019-04-27T07:03:39.502Z,25.92
2019-04-27T07:06:08.824Z,26.87
2019-04-27T07:08:39.930Z,74.42
2019-04-27T07:11:08.995Z,32.48
2019-04-27T07:13:39.067Z,87.90
2019-04-27T07:16:09.502Z,14.40
2019-04-27T07:18:39.662Z,59.90
2019-04-27T07:21:16.912Z,77.15
2019-04-27T07:23:40.226Z,54.65
2019-04-27T07:26:09.387Z,25.92
2019-04-27T07:28:39.256Z,19.17
2019-04-27T07:31:09.652Z,26.02
2019-04-27T07:33:39.547Z,20.45
2019-04-27T07:36:08.953Z,21.50
2019-04-27T07:38:39.387Z,17.57
2019-04-27T07:41:09.565Z,31.42
2019-04-27T07:43:55.046Z,20.87
2019-04-27T07:46:23.541Z,16.27
2019-04-27T07:48:52.952Z,13.55
2019-04-27T07:51:31.591Z,21.45
2019-04-27T07:53:53.702Z,24.00
2019-04-27T07:56:22.223Z,15.10
2019-04-27T07:58:50.720Z,18.25
2019-04-27T08:01:19.351Z,24.13
2019-04-27T08:03:49.038Z,17.65
2019-04-27T08:06:18.983Z,60.25
2019-04-27T08:08:49.226Z,28.52
2019-04-27T08:11:19.257Z,23.02
2019-04-27T08:13:49.017Z,20.15
2019-04-27T08:16:18.305Z,46.60
2019-04-27T08:18:49.349Z,64.20
2019-04-27T08:21:18.869Z,47.30
2019-04-27T08:23:49.001Z,24.35
2019-04-27T08:26:19.226Z,32.75
2019-04-27T08:28:51.840Z,17.50
2019-04-27T08:31:21.961Z,27.13
2019-04-27T08:33:50.455Z,17.75
2019-04-27T08:36:19.139Z,25.17
2019-04-27T08:38:48.932Z,26.65
2019-04-27T08:41:17.435Z,31.75
2019-04-27T08:43:45.961Z,41.10
2019-04-27T08:46:14.480Z,25.50
2019-04-27T08:48:42.953Z,54.60
2019-04-27T08:51:11.429Z,37.90
2019-04-27T08:53:39.961Z,82.97
2019-04-27T08:56:09.372Z,46.45
2019-04-27T08:58:38.603Z,30.52
2019-04-27T09:01:10.041Z,25.20
2019-04-27T09:03:39.458Z,24.30
2019-04-27T09:08:59.281Z,37.95
2019-04-27T09:11:29.578Z,44.23
2019-04-27T09:14:02.839Z,46.92
2019-04-27T09:16:32.986Z,38.58
2019-04-27T09:19:05.866Z,28.90
2019-04-27T09:21:52.275Z,31.30
2019-04-27T09:24:20.822Z,55.95
2019-04-27T09:26:49.324Z,29.40
2019-04-27T09:29:17.798Z,31.12
2019-04-27T09:31:46.301Z,34.53
2019-04-27T09:34:14.823Z,28.77
2019-04-27T09:36:46.268Z,47.55
2019-04-27T09:39:16.367Z,17.30
2019-04-27T09:41:45.974Z,19.82
2019-04-27T09:44:16.054Z,22.30
2019-04-27T09:46:44.646Z,16.27
2019-04-27T09:49:13.139Z,20.92
2019-04-27T09:51:41.658Z,17.62
2019-04-27T09:54:10.151Z,15.00
2019-04-27T09:56:38.662Z,10.78
2019-04-27T09:59:07.226Z,15.43
2019-04-27T10:01:36.140Z,14.18
2019-04-27T10:04:05.220Z,13.70
2019-04-27T10:06:33.814Z,15.72
2019-04-27T10:09:02.395Z,11.00
2019-04-27T10:11:31.015Z,12.07
2019-04-27T10:13:59.553Z,69.75
2019-04-27T10:16:28.051Z,15.72
2019-04-27T10:18:56.580Z,13.68
2019-04-27T10:21:26.418Z,13.35
2019-04-27T10:23:56.664Z,14.23
2019-04-27T10:26:25.952Z,17.65
2019-04-27T10:28:55.985Z,16.10
2019-04-27T10:31:24.634Z,17.15
2019-04-27T10:33:53.120Z,19.87
2019-04-27T10:36:23.322Z,14.38
2019-04-27T10:38:55.522Z,14.47
2019-04-27T10:41:25.898Z,17.57
2019-04-27T10:43:54.480Z,16.85
2019-04-27T10:46:22.999Z,18.42
2019-04-27T10:48:51.573Z,20.17
2019-04-27T10:51:20.070Z,14.07
2019-04-27T10:53:48.589Z,16.30
2019-04-27T10:56:17.170Z,12.95
2019-04-27T10:58:45.773Z,15.30
2019-04-27T11:01:15.634Z,20.00
2019-04-27T11:03:51.726Z,16.00
2019-04-27T11:06:34.087Z,15.88
2019-04-27T11:09:02.806Z,19.30
2019-04-27T11:11:32.821Z,14.07
2019-04-27T11:14:01.316Z,13.98
2019-04-27T11:16:29.972Z,15.40
2019-04-27T11:18:58.847Z,17.73
2019-04-27T11:21:27.457Z,19.27
2019-04-27T11:23:56.052Z,20.32
2019-04-27T11:26:26.199Z,18.50
2019-04-27T11:28:55.112Z,19.70
2019-04-27T11:31:23.740Z,18.20
2019-04-27T11:33:53.104Z,19.77
2019-04-27T11:36:23.250Z,17.02
2019-04-27T11:38:53.412Z,17.77
2019-04-27T11:41:21.987Z,18.62
2019-04-27T11:43:50.566Z,19.37
2019-04-27T11:46:19.060Z,19.27
2019-04-27T11:48:47.656Z,24.25
2019-04-27T11:51:17.440Z,18.55
2019-04-27T11:53:46.811Z,29.50
2019-04-27T11:56:15.715Z,23.00
2019-04-27T11:58:47.307Z,168.30
2019-04-27T12:01:16.094Z,420.98
2019-04-27T12:03:44.676Z,65.70
2019-04-27T12:06:13.355Z,17.05
2019-04-27T12:08:41.848Z,18.30
2019-04-27T12:11:10.421Z,26.70
2019-04-27T12:13:38.944Z,11.68
2019-04-27T12:16:07.473Z,10.93
2019-04-27T12:18:36.128Z,11.95
2019-04-27T12:21:06.121Z,12.20
2019-04-27T12:23:39.472Z,13.95
2019-04-27T12:26:05.836Z,13.43
2019-04-27T12:28:36.038Z,11.48
2019-04-27T12:31:08.784Z,100.53
2019-04-27T12:33:37.290Z,423.03
2019-04-27T12:36:06.785Z,231.93
2019-04-27T12:38:36.534Z,517.85
2019-04-27T12:41:06.804Z,46.25
2019-04-27T12:43:35.618Z,31.10
2019-04-27T12:46:06.018Z,21.77
2019-04-27T12:48:37.193Z,29.07
2019-04-27T12:51:05.240Z,35.60
2019-04-27T12:53:50.686Z,132.45
2019-04-27T12:56:29.806Z,20.82
2019-04-27T12:58:59.941Z,26.62
2019-04-27T13:01:29.517Z,19.25
2019-04-27T13:03:59.247Z,25.45
2019-04-27T13:06:27.998Z,32.25
2019-04-27T13:08:56.513Z,25.00
2019-04-27T13:11:26.795Z,32.17
2019-04-27T13:13:57.269Z,32.53
2019-04-27T13:16:26.880Z,13.07
2019-04-27T13:18:57.480Z,14.00
2019-04-27T13:21:26.366Z,22.00
2019-04-27T13:24:03.673Z,28.10
2019-04-27T13:26:25.746Z,18.55
2019-04-27T13:28:54.803Z,42.50
2019-04-27T13:31:23.325Z,71.57
2019-04-27T13:33:51.840Z,35.47
2019-04-27T13:36:20.392Z,25.68
2019-04-27T13:38:48.893Z,23.60
2019-04-27T13:41:27.859Z,31.23
2019-04-27T13:43:47.611Z,17.82
2019-04-27T13:46:17.783Z,17.27
2019-04-27T13:49:02.665Z,19.23
2019-04-27T13:51:35.567Z,23.77
2019-04-27T13:54:17.350Z,29.07
2019-04-27T13:56:35.612Z,26.55
2019-04-27T13:59:07.531Z,25.60
2019-04-27T14:01:35.589Z,25.52
2019-04-27T14:04:06.861Z,38.10
2019-04-27T14:06:35.198Z,41.70
2019-04-27T14:09:05.225Z,43.35
2019-04-27T14:11:33.717Z,67.40
2019-04-27T14:14:02.201Z,30.88
2019-04-27T14:19:10.982Z,26.52
2019-04-27T14:21:39.639Z,29.00
2019-04-27T14:24:08.127Z,35.50
2019-04-27T14:26:38.460Z,38.08
2019-04-27T14:29:08.232Z,55.73
2019-04-27T14:31:37.255Z,45.80
2019-04-27T14:34:05.787Z,35.17
2019-04-27T14:36:34.983Z,53.73
2019-04-27T14:39:04.902Z,33.80
2019-04-27T14:41:33.416Z,40.40
2019-04-27T14:44:08.120Z,37.93
2019-04-27T14:46:32.224Z,31.55
2019-04-27T14:49:00.715Z,52.20
2019-04-27T14:51:29.226Z,31.75
2019-04-27T14:53:58.885Z,34.77
2019-04-27T14:56:28.225Z,26.20
2019-04-27T14:58:58.661Z,30.23
2019-04-27T15:01:27.009Z,38.10
2019-04-27T15:03:55.533Z,53.63
2019-04-27T15:06:25.533Z,53.75
2019-04-27T15:08:55.900Z,76.55
2019-04-27T15:11:24.564Z,81.30
2019-04-27T15:13:56.827Z,53.08
2019-04-27T15:16:24.809Z,60.45
2019-04-27T15:18:55.737Z,50.75
2019-04-27T15:21:25.617Z,60.83
2019-04-27T15:23:54.778Z,47.43
2019-04-27T15:26:23.261Z,68.28
2019-04-27T15:28:53.412Z,75.83
2019-04-27T15:31:27.012Z,43.10
2019-04-27T15:34:01.299Z,42.33
2019-04-27T15:36:34.209Z,44.20
2019-04-27T15:39:15.938Z,45.10
2019-04-27T15:41:51.632Z,84.95
2019-04-27T15:44:20.156Z,79.30
2019-04-27T15:46:48.653Z,66.67
2019-04-27T15:49:17.906Z,90.30
2019-04-27T15:51:46.537Z,101.75
2019-04-27T15:54:15.066Z,113.67
2019-04-27T15:56:43.704Z,112.00
2019-04-27T15:59:12.229Z,121.30
2019-04-27T16:01:40.734Z,97.35
2019-04-27T16:04:11.191Z,109.27
2019-04-27T16:06:42.847Z,112.70
2019-04-27T16:09:11.550Z,107.75
2019-04-27T16:11:40.058Z,112.00
2019-04-27T16:14:08.623Z,96.30
2019-04-27T16:16:38.198Z,111.83
2019-04-27T16:19:10.209Z,78.12
2019-04-27T16:21:41.585Z,68.37
2019-04-27T16:24:08.492Z,81.57
2019-04-27T16:26:38.687Z,68.55
2019-04-27T16:29:08.285Z,83.67
2019-04-27T16:31:38.490Z,102.53
2019-04-27T16:34:08.331Z,112.40
2019-04-27T16:36:43.454Z,79.30
2019-04-27T16:39:09.926Z,70.15
2019-04-27T16:41:41.778Z,91.63
2019-04-27T16:44:10.905Z,111.80
2019-04-27T16:46:42.815Z,80.25
2019-04-27T16:49:13.825Z,83.16
2019-04-27T16:51:40.360Z,95.55
2019-04-27T16:54:13.006Z,81.70
2019-04-27T16:56:39.252Z,86.10
2019-04-27T16:59:33.758Z,71.07
2019-04-27T17:01:40.074Z,77.30
2019-04-27T17:04:11.309Z,77.80
2019-04-27T17:06:45.666Z,97.10
2019-04-27T17:09:11.378Z,112.37
2019-04-27T17:11:43.848Z,92.78
2019-04-27T17:14:11.184Z,82.46
2019-04-27T17:16:41.309Z,82.33
2019-04-27T17:19:14.227Z,64.58
2019-04-27T17:21:42.715Z,65.97
2019-04-27T17:24:11.222Z,54.20
2019-04-27T17:26:43.556Z,49.63
2019-04-27T17:29:16.807Z,47.70
2019-04-27T17:31:43.488Z,79.35
2019-04-27T17:34:12.912Z,81.90
2019-04-27T17:36:42.179Z,138.35
2019-04-27T17:39:11.308Z,159.30
2019-04-27T17:41:42.077Z,138.85
2019-04-27T17:44:12.741Z,111.05
2019-04-27T17:46:42.651Z,111.00
2019-04-27T17:49:11.110Z,120.02
2019-04-27T17:51:44.139Z,127.72
2019-04-27T17:54:11.482Z,93.12
2019-04-27T17:56:48.411Z,219.57
2019-04-27T17:59:16.732Z,199.80
2019-04-27T18:01:40.496Z,177.65
2019-04-27T18:04:10.718Z,188.25
2019-04-27T18:06:39.294Z,145.53
2019-04-27T18:09:09.903Z,128.15
2019-04-27T18:11:38.620Z,144.25
2019-04-27T18:14:09.829Z,160.48
2019-04-27T18:16:38.064Z,126.80
2019-04-27T18:19:11.999Z,138.77
2019-04-27T18:21:42.219Z,148.70
2019-04-27T18:24:12.354Z,158.27
2019-04-27T18:26:56.377Z,148.55
2019-04-27T18:29:22.846Z,173.15
2019-04-27T18:31:54.620Z,151.55
2019-04-27T18:34:22.094Z,107.67
2019-04-27T18:36:50.672Z,101.75
2019-04-27T18:39:19.253Z,101.60
2019-04-27T18:41:50.694Z,95.70
2019-04-27T18:44:23.578Z,94.37
2019-04-27T18:49:30.251Z,107.07
2019-04-27T18:52:04.498Z,97.25
2019-04-27T18:54:33.044Z,108.57
2019-04-27T18:57:04.153Z,97.25
2019-04-27T18:59:30.916Z,87.83
2019-04-27T19:01:59.415Z,81.45
2019-04-27T19:04:28.199Z,70.57
2019-04-27T19:06:59.839Z,74.07
2019-04-27T19:09:27.062Z,74.87
2019-04-27T19:11:56.669Z,77.55
2019-04-27T19:14:25.349Z,73.35
2019-04-27T19:16:58.668Z,85.00
2019-04-27T19:19:28.072Z,94.60
2019-04-27T19:21:58.739Z,91.67
2019-04-27T19:24:28.158Z,109.75
2019-04-27T19:26:58.807Z,118.70
2019-04-27T19:29:29.300Z,147.70
2019-04-27T19:32:02.181Z,115.85
2019-04-27T19:34:30.750Z,116.53
2019-04-27T19:36:59.376Z,110.17
2019-04-27T19:39:28.559Z,105.85
2019-04-27T19:42:01.435Z,88.33
2019-04-27T19:44:29.153Z,96.60
2019-04-27T19:46:59.991Z,87.20
2019-04-27T19:49:31.224Z,95.77
2019-04-27T19:51:58.928Z,103.32
2019-04-27T19:54:28.249Z,99.40
2019-04-27T19:56:59.537Z,99.87
2019-04-27T19:59:29.845Z,103.87
2019-04-27T20:02:00.085Z,101.95
2019-04-27T20:04:33.209Z,100.90
2019-04-27T20:07:01.777Z,102.53
2019-04-27T20:09:34.767Z,105.52
2019-04-27T20:12:05.059Z,100.00
2019-04-27T20:14:36.028Z,92.72
2019-04-27T20:17:04.919Z,93.30
2019-04-27T20:19:33.407Z,88.25
2019-04-27T20:22:01.918Z,95.10
2019-04-27T20:24:31.407Z,96.97
2019-04-27T20:27:02.642Z,99.77
2019-04-27T20:29:31.703Z,94.50
2019-04-27T20:32:01.210Z,95.55
2019-04-27T20:34:31.095Z,96.83
2019-04-27T20:37:01.637Z,80.12
2019-04-27T20:39:30.314Z,78.87
2019-04-27T20:41:58.897Z,79.97
2019-04-27T20:44:27.391Z,71.97
2019-04-27T20:46:55.985Z,72.00
2019-04-27T20:49:24.588Z,70.92
2019-04-27T20:52:01.044Z,77.15
2019-04-27T20:54:30.595Z,69.10
2019-04-27T20:57:01.529Z,73.10
2019-04-27T20:59:30.203Z,78.92
2019-04-27T21:02:00.355Z,79.20
2019-04-27T21:04:36.599Z,73.97
2019-04-27T21:07:06.825Z,74.92
2019-04-27T21:09:35.319Z,88.90
2019-04-27T21:12:04.842Z,107.12
2019-04-27T21:14:33.334Z,64.25
2019-04-27T21:17:01.855Z,66.97
2019-04-27T21:19:31.230Z,58.13
2019-04-27T21:22:01.267Z,69.27
2019-04-27T21:24:31.168Z,66.42
2019-04-27T21:26:59.688Z,66.72
2019-04-27T21:29:28.247Z,201.73
2019-04-27T21:31:56.754Z,115.15
2019-04-27T21:34:25.285Z,112.22
2019-04-27T21:36:53.788Z,81.90
2019-04-27T21:39:22.316Z,137.80
2019-04-27T21:41:51.747Z,93.85
2019-04-27T21:44:21.782Z,62.50
2019-04-27T21:46:51.906Z,70.67
2019-04-27T21:49:22.229Z,49.30
2019-04-27T21:52:04.707Z,52.67
2019-04-27T21:54:34.946Z,124.75
2019-04-27T21:57:03.431Z,47.95
2019-04-27T21:59:32.817Z,47.08
2019-04-27T22:02:03.016Z,61.50
2019-04-27T22:04:31.677Z,66.53
2019-04-27T22:07:01.398Z,70.15
2019-04-27T22:09:29.980Z,46.50
2019-04-27T22:11:58.553Z,40.25
2019-04-27T22:14:27.113Z,64.17
2019-04-27T22:16:55.615Z,56.68
2019-04-27T22:19:24.719Z,79.12
2019-04-27T22:21:53.216Z,43.50
2019-04-27T22:24:23.380Z,49.77
2019-04-27T22:26:51.967Z,61.77
2019-04-27T22:29:22.192Z,50.52
2019-04-27T22:31:51.581Z,47.85
2019-04-27T22:34:21.073Z,44.33
2019-04-27T22:36:49.621Z,62.05
2019-04-27T22:39:20.879Z,36.17
2019-04-27T22:42:01.717Z,72.35
2019-04-27T22:44:41.054Z,85.25
2019-04-27T22:47:11.430Z,71.77
2019-04-27T22:49:39.857Z,46.77
2019-04-27T22:52:08.379Z,45.38
2019-04-27T22:54:36.873Z,40.73
2019-04-27T22:57:07.101Z,41.25
2019-04-27T22:59:41.439Z,32.93
2019-04-27T23:02:23.982Z,35.38
2019-04-27T23:04:56.946Z,37.28
2019-04-27T23:07:25.548Z,30.48
2019-04-27T23:09:54.050Z,33.88
2019-04-27T23:12:23.063Z,36.93
2019-04-27T23:14:51.708Z,35.58
2019-04-27T23:17:41.529Z,47.35
2019-04-27T23:20:11.570Z,88.82
2019-04-27T23:22:40.195Z,60.25
2019-04-27T23:25:08.744Z,66.25
2019-04-27T23:27:37.247Z,44.90
2019-04-27T23:30:07.619Z,49.25
2019-04-27T23:32:43.465Z,55.97
2019-04-27T23:35:13.875Z,65.80
2019-04-27T23:37:42.387Z,47.58
2019-04-27T23:40:12.092Z,48.73
2019-04-27T23:42:41.623Z,51.23
2019-04-27T23:45:10.882Z,47.60
2019-04-27T23:47:39.360Z,39.67
2019-04-27T23:50:08.426Z,66.35
2019-04-27T23:52:54.590Z,38.25
2019-04-27T23:55:24.739Z,45.87
2019-04-27T23:57:53.235Z,41.85
